createdAt,value
2017-11-23T00:01:26.794Z,74.3
2017-11-23T00:11:26.939Z,76.1
2017-11-23T00:21:27.958Z,77.6
2017-11-23T00:31:26.389Z,77.5
2017-11-23T00:41:27.267Z,84.5
2017-11-23T00:51:27.547Z,80.2
2017-11-23T01:01:26.979Z,67.0
2017-11-23T01:11:26.699Z,65.8
2017-11-23T01:21:26.045Z,76.9
2017-11-23T01:31:26.982Z,83.6
2017-11-23T01:41:26.689Z,89.3
2017-11-23T01:51:29.875Z,79.4
2017-11-23T02:01:26.581Z,89.4
2017-11-23T02:11:27.862Z,95.7
2017-11-23T02:21:26.214Z,83.5
2017-11-23T02:31:27.808Z,78.3
2017-11-23T02:41:27.696Z,72.7
2017-11-23T02:51:27.662Z,75.8
2017-11-23T03:01:27.379Z,75.7
2017-11-23T03:11:27.625Z,78.7
2017-11-23T03:21:26.686Z,84.3
2017-11-23T03:31:27.669Z,83.3
2017-11-23T03:41:26.901Z,85.3
2017-11-23T03:51:26.069Z,84.4
2017-11-23T04:01:27.464Z,76.6
2017-11-23T04:11:27.715Z,77.1
2017-11-23T04:21:26.067Z,75.5
2017-11-23T04:31:26.187Z,78.6
2017-11-23T04:41:26.549Z,73.5
2017-11-23T04:51:26.942Z,76.4
2017-11-23T05:01:26.926Z,73.4
2017-11-23T05:11:27.134Z,66.5
2017-11-23T05:21:28.158Z,76.6
2017-11-23T05:31:26.728Z,71.9
2017-11-23T05:41:26.826Z,65.7
2017-11-23T05:51:27.391Z,70.8
2017-11-23T06:01:26.775Z,64.8
2017-11-23T06:11:26.901Z,69.9
2017-11-23T06:21:26.494Z,69.5
2017-11-23T06:31:28.590Z,74.9
2017-11-23T06:41:28.112Z,70.7
2017-11-23T06:51:26.607Z,65.1
2017-11-23T07:01:28.448Z,72.4
2017-11-23T07:11:26.567Z,59.3
2017-11-23T07:21:27.239Z,54.9
2017-11-23T07:31:27.526Z,58.5
2017-11-23T07:41:27.483Z,59.5
2017-11-23T07:51:26.832Z,60.4
2017-11-23T08:01:28.376Z,60.0
2017-11-23T08:11:26.530Z,55.6
2017-11-23T08:21:26.879Z,67.4
2017-11-23T08:31:26.021Z,66.3
2017-11-23T08:41:26.450Z,64.4
2017-11-23T08:51:28.007Z,65.5
2017-11-23T09:01:27.342Z,64.2
2017-11-23T09:11:28.044Z,64.7
2017-11-23T09:21:26.424Z,54.0
2017-11-23T09:31:30.182Z,63.3
2017-11-23T09:41:26.314Z,62.5
2017-11-23T09:51:26.965Z,64.5
2017-11-23T10:01:26.892Z,77.1
2017-11-23T10:11:26.297Z,69.2
2017-11-23T10:21:26.666Z,64.6
2017-11-23T10:31:28.171Z,56.9
2017-11-23T10:41:26.438Z,59.5
2017-11-23T10:51:26.619Z,64.9
2017-11-23T11:01:27.333Z,60.5
2017-11-23T11:11:26.528Z,69.9
2017-11-23T11:21:27.872Z,70.4
2017-11-23T11:31:27.961Z,68.6
2017-11-23T11:41:29.028Z,62.7
2017-11-23T11:51:26.456Z,67.8
2017-11-23T12:01:27.201Z,61.6
2017-11-23T12:11:28.692Z,72.6
2017-11-23T12:21:26.400Z,83.3
2017-11-23T12:31:26.653Z,60.5
2017-11-23T12:41:26.944Z,70.2
2017-11-23T12:51:26.535Z,50.6
2017-11-23T13:01:27.252Z,46.6
2017-11-23T13:11:26.952Z,43.0
2017-11-23T13:21:27.688Z,35.4
2017-11-23T13:31:27.736Z,48.8
2017-11-23T13:41:28.614Z,23.7
2017-11-23T13:51:27.655Z,23.0
2017-11-23T14:01:28.289Z,21.9
2017-11-23T14:11:27.069Z,18.3
2017-11-23T14:21:26.986Z,24.4
2017-11-23T14:31:26.207Z,22.4
2017-11-23T14:41:27.028Z,26.5
2017-11-23T14:51:26.217Z,25.4
2017-11-23T15:01:27.172Z,27.7
2017-11-23T15:11:26.974Z,34.8
2017-11-23T15:21:26.442Z,36.1
2017-11-23T15:31:27.805Z,34.2
2017-11-23T15:41:26.359Z,35.1
2017-11-23T15:51:26.532Z,38.4
2017-11-23T16:01:27.255Z,36.6
2017-11-23T16:11:26.979Z,40.4
2017-11-23T16:21:26.627Z,42.8
2017-11-23T16:31:27.060Z,57.5
2017-11-23T16:41:26.332Z,56.6
2017-11-23T16:51:27.066Z,61.2
2017-11-23T17:01:26.209Z,72.2
2017-11-23T17:11:26.605Z,73.1
2017-11-23T17:21:27.489Z,78.4
2017-11-23T17:31:26.725Z,79.2
2017-11-23T17:41:26.995Z,79.8
2017-11-23T17:51:26.759Z,93.9
2017-11-23T18:01:27.215Z,117.0
2017-11-23T18:11:28.051Z,103.9
2017-11-23T18:21:27.437Z,102.9
2017-11-23T18:31:27.132Z,135.4
2017-11-23T18:41:26.890Z,168.4
2017-11-23T18:51:27.783Z,170.2
2017-11-23T19:01:27.440Z,165.8
2017-11-23T19:11:28.193Z,172.1
2017-11-23T19:21:26.713Z,171.9
2017-11-23T19:31:26.364Z,205.5
2017-11-23T19:41:27.259Z,214.5
2017-11-23T19:51:26.385Z,171.9
2017-11-23T20:01:28.503Z,159.1
2017-11-23T20:11:26.567Z,152.8
2017-11-23T20:21:26.872Z,159.7
2017-11-23T20:31:27.123Z,154.4
2017-11-23T20:41:26.516Z,158.4
2017-11-23T20:51:27.490Z,155.7
2017-11-23T21:01:27.200Z,152.5
2017-11-23T21:11:26.686Z,139.1
2017-11-23T21:21:29.491Z,149.0
2017-11-23T21:31:27.413Z,144.6
2017-11-23T21:41:28.294Z,148.0
2017-11-23T21:51:26.646Z,149.8
2017-11-23T22:01:27.611Z,143.4
2017-11-23T22:11:27.131Z,148.4
2017-11-23T22:21:26.742Z,146.9
2017-11-23T22:31:26.979Z,148.6
2017-11-23T22:41:26.507Z,156.3
2017-11-23T22:51:27.682Z,131.9
2017-11-23T23:01:27.927Z,153.2
2017-11-23T23:11:26.336Z,150.1
2017-11-23T23:21:28.093Z,147.5
2017-11-23T23:31:27.944Z,153.5
2017-11-23T23:41:26.599Z,149.0
2017-11-23T23:51:27.931Z,142.9
